Buoy 43528

sailwx.info

Track history (hours):
 
Tides and Currents Weather Stations Pressure Air Temp Water Temp Dewpoint Dewpoint Depression Visibility Wind Speed Wind Dir Waves Ship Positions

Drifting buoy 43528

Last reported at 2016-Feb-13 00:00 UTC. Time now 2016-Feb-13 02:28 UTC.
Position N 17°21' E 148°09'.

Water temperature 26.8 ° C

Date/timePositionNaut miles runAvg speedWind from/ knotsBaromVisibWave heightAir tempDewpointWater temp
2016-Feb-13 00:00N 17°21' E 148°09'1 1.2 26.8
2016-Feb-12 23:00N 17°21' E 148°10'2 0.8 26.8
2016-Feb-12 20:00N 17°20' E 148°12'11 0.9 26.8
2016-Feb-12 08:00N 17°19' E 148°23'1 1.3 26.9
2016-Feb-12 07:00N 17°19' E 148°25'3 1.0 26.9
2016-Feb-12 04:00N 17°20' E 148°28'0 0.0 26.9
2016-Feb-12 03:00N 17°20' E 148°28'3 1.0 26.9
2016-Feb-12 00:00N 17°21' E 148°30'0 0.3 26.9
2016-Feb-11 23:00N 17°22' E 148°30'0 0.0 26.9
2016-Feb-11 22:00N 17°22' E 148°30'3 1.0 26.9
2016-Feb-11 19:00N 17°23' E 148°33'1 0.9 26.9
2016-Feb-11 18:00N 17°23' E 148°34'1 1.2 26.9
2016-Feb-11 17:00N 17°24' E 148°35'4 0.8 26.9
2016-Feb-11 12:00N 17°26' E 148°38'0 0.0 26.9
2016-Feb-11 11:00N 17°26' E 148°38'1 0.9 26.9
2016-Feb-11 10:00N 17°27' E 148°38'2 0.8 26.9
2016-Feb-11 08:00N 17°28' E 148°40'7 0.6 26.9
2016-Feb-10 21:00N 17°34' E 148°43'2 0.4 26.8
2016-Feb-10 17:00N 17°35' E 148°45'3 0.3 26.9
2016-Feb-10 08:00N 17°37' E 148°47'0 0.4 26.9
2016-Feb-10 07:00N 17°37' E 148°47'2 0.7 27.0
2016-Feb-10 04:00N 17°38' E 148°49'3 0.4 27.0
2016-Feb-09 20:00N 17°38' E 148°52'0 0.3 26.9
2016-Feb-09 19:00N 17°38' E 148°52'1 0.7 26.9
2016-Feb-09 17:00N 17°39' E 148°53'1 0.7 26.9
2016-Feb-09 16:00N 17°40' E 148°54'0 0.0 26.9
2016-Feb-09 15:00N 17°40' E 148°54'1 0.3 26.9
2016-Feb-09 12:00N 17°41' E 148°54'1 1.1 26.9
2016-Feb-09 11:00N 17°41' E 148°55'3 1.0 27.0
2016-Feb-09 08:00N 17°42' E 148°58'0 0.2 27.0
2016-Feb-09 07:00N 17°42' E 148°58'3 0.9 27.1
2016-Feb-09 04:00N 17°44' E 148°59'0 0.0 27.2
2016-Feb-09 03:00N 17°44' E 148°59'1 0.3 27.2
2016-Feb-09 01:00N 17°44' E 148°58'0 0.0 27.0
2016-Feb-09 00:00N 17°44' E 148°58'0 0.3 26.9
2016-Feb-08 23:00N 17°44' E 148°59'0 0.0 26.9
2016-Feb-08 22:00N 17°44' E 148°59'1 0.4 26.9
2016-Feb-08 20:00N 17°45' E 148°59'1 0.7 26.8
2016-Feb-08 19:00N 17°45' E 148°60'1 0.8 26.9
2016-Feb-08 18:00N 17°45' E 149°00'1 0.2 26.8
2016-Feb-08 12:00N 17°46' E 149°00'0 0.2 26.9
2016-Feb-08 11:00N 17°46' E 149°00'0 0.3 26.9
2016-Feb-08 10:00N 17°46' E 149°00'0 0.0 26.9
2016-Feb-08 09:00N 17°46' E 149°00'3 0.9 26.9
2016-Feb-08 06:00N 17°45' E 149°03'1 0.9 27.0
2016-Feb-08 05:00N 17°45' E 149°04'1 0.4 27.0
2016-Feb-08 03:00N 17°45' E 149°05'0 0.0 26.9
2016-Feb-08 02:00N 17°45' E 149°05'2 0.8 26.9
2016-Feb-08 00:00N 17°44' E 149°06'0 0.2 26.9
2016-Feb-07 23:00N 17°44' E 149°06'0 0.2 26.9
2016-Feb-07 21:00N 17°44' E 149°06'0 0.1 26.9
2016-Feb-07 20:00N 17°44' E 149°06'1 0.7 26.8
2016-Feb-07 19:00N 17°43' E 149°07'0 0.3 26.9
2016-Feb-07 18:00N 17°43' E 149°07'0 0.1 26.9
2016-Feb-07 17:00N 17°43' E 149°07'2 1.9 26.9
2016-Feb-07 16:00N 17°42' E 149°08'1 1.3 26.9
2016-Feb-07 15:00N 17°43' E 149°07'1 0.4 26.9
2016-Feb-07 12:00N 17°42' E 149°08'1 0.5 26.9
2016-Feb-07 11:00N 17°42' E 149°09'1 0.6 27.0
2016-Feb-07 10:00N 17°41' E 149°09'2 0.8 27.0
2016-Feb-07 08:00N 17°41' E 149°11'0 0.1 27.0
2016-Feb-07 06:00N 17°41' E 149°11'0 0.3 27.1
2016-Feb-07 05:00N 17°41' E 149°11'1 0.3 27.1
2016-Feb-07 03:00N 17°41' E 149°12'0 0.0 27.1
2016-Feb-07 02:00N 17°41' E 149°12'2 0.9 27.0
2016-Feb-07 00:00N 17°41' E 149°14'0 0.1 26.9
2016-Feb-06 23:00N 17°41' E 149°14'1 0.4 26.9
2016-Feb-06 21:00N 17°42' E 149°14'0 0.1 26.9
2016-Feb-06 20:00N 17°42' E 149°14'0 0.0 26.9
2016-Feb-06 18:00N 17°42' E 149°14'0 0.1 26.9
2016-Feb-06 17:00N 17°42' E 149°14'0 0.3 26.9
2016-Feb-06 16:00N 17°42' E 149°14'0 0.0 26.9
2016-Feb-06 15:00N 17°42' E 149°14'2 0.7 26.9
2016-Feb-06 12:00N 17°41' E 149°16'1 0.6 26.9
2016-Feb-06 11:00N 17°41' E 149°17'3 0.8 26.9
2016-Feb-06 08:00N 17°40' E 149°19'0 0.4 26.9
2016-Feb-06 07:00N 17°40' E 149°19'1 0.4 26.9
2016-Feb-06 05:00N 17°40' E 149°19'2 0.9 27.0
2016-Feb-06 03:00N 17°39' E 149°21'4 1.4 26.9
2016-Feb-06 00:00N 17°36' E 149°24'3 3.2 26.9
2016-Feb-05 23:00N 17°33' E 149°26'2 0.4 26.9
2016-Feb-05 19:00N 17°32' E 149°27'0 0.0 26.9
2016-Feb-05 18:00N 17°32' E 149°27'4 0.7 26.9
2016-Feb-05 12:00N 17°28' E 149°29'3 0.5 27.0
2016-Feb-05 07:00N 17°26' E 149°29'5 0.7 27.0
2016-Feb-05 00:00N 17°21' E 149°29'2 2.1 27.0
2016-Feb-04 23:00N 17°18' E 149°29'1 0.4 27.0
2016-Feb-04 20:00N 17°18' E 149°30'1 0.8 27.0
2016-Feb-04 19:00N 17°17' E 149°31'4 1.3 27.0
2016-Feb-04 16:00N 17°14' E 149°33'0 0.1 27.0
2016-Feb-04 12:00N 17°14' E 149°33'1 1.3 27.0
2016-Feb-04 11:00N 17°14' E 149°35'0 0.0 27.0
2016-Feb-04 10:00N 17°14' E 149°35'1 0.4 27.0
2016-Feb-04 08:00N 17°14' E 149°35'0 0.5 27.1
2016-Feb-04 07:00N 17°13' E 149°35'0 0.0 27.1
2016-Feb-04 06:00N 17°13' E 149°35'2 0.8 27.2
2016-Feb-04 04:00N 17°13' E 149°37'3 0.3 27.2
2016-Feb-03 20:00N 17°11' E 149°39'3 0.4 27.0
2016-Feb-03 11:00N 17°08' E 149°39'2 0.8 27.0
2016-Feb-03 08:00N 17°07' E 149°42'   27.0
Track history (hours):
 
Tides and Currents Weather Stations Pressure Air Temp Water Temp Dewpoint Dewpoint Depression Visibility Wind Speed Wind Dir Waves Ship Positions

Drifting buoy 43528

Last reported at 2016-Feb-13 00:00 UTC. Time now 2016-Feb-13 02:28 UTC.
Position N 17°21' E 148°09'.

Water temperature 26.8 ° C

Date/timePositionNaut miles runAvg speedWind from/ knotsBaromVisibWave heightAir tempDewpointWater temp
2016-Feb-13 00:00N 17°21' E 148°09'1 1.2 26.8
2016-Feb-12 23:00N 17°21' E 148°10'2 0.8 26.8
2016-Feb-12 20:00N 17°20' E 148°12'11 0.9 26.8
2016-Feb-12 08:00N 17°19' E 148°23'1 1.3 26.9
2016-Feb-12 07:00N 17°19' E 148°25'3 1.0 26.9
2016-Feb-12 04:00N 17°20' E 148°28'0 0.0 26.9
2016-Feb-12 03:00N 17°20' E 148°28'3 1.0 26.9
2016-Feb-12 00:00N 17°21' E 148°30'0 0.3 26.9
2016-Feb-11 23:00N 17°22' E 148°30'0 0.0 26.9
2016-Feb-11 22:00N 17°22' E 148°30'3 1.0 26.9
2016-Feb-11 19:00N 17°23' E 148°33'1 0.9 26.9
2016-Feb-11 18:00N 17°23' E 148°34'1 1.2 26.9
2016-Feb-11 17:00N 17°24' E 148°35'4 0.8 26.9
2016-Feb-11 12:00N 17°26' E 148°38'0 0.0 26.9
2016-Feb-11 11:00N 17°26' E 148°38'1 0.9 26.9
2016-Feb-11 10:00N 17°27' E 148°38'2 0.8 26.9
2016-Feb-11 08:00N 17°28' E 148°40'7 0.6 26.9
2016-Feb-10 21:00N 17°34' E 148°43'2 0.4 26.8
2016-Feb-10 17:00N 17°35' E 148°45'3 0.3 26.9
2016-Feb-10 08:00N 17°37' E 148°47'0 0.4 26.9
2016-Feb-10 07:00N 17°37' E 148°47'2 0.7 27.0
2016-Feb-10 04:00N 17°38' E 148°49'3 0.4 27.0
2016-Feb-09 20:00N 17°38' E 148°52'0 0.3 26.9
2016-Feb-09 19:00N 17°38' E 148°52'1 0.7 26.9
2016-Feb-09 17:00N 17°39' E 148°53'1 0.7 26.9
2016-Feb-09 16:00N 17°40' E 148°54'0 0.0 26.9
2016-Feb-09 15:00N 17°40' E 148°54'1 0.3 26.9
2016-Feb-09 12:00N 17°41' E 148°54'1 1.1 26.9
2016-Feb-09 11:00N 17°41' E 148°55'3 1.0 27.0
2016-Feb-09 08:00N 17°42' E 148°58'0 0.2 27.0
2016-Feb-09 07:00N 17°42' E 148°58'3 0.9 27.1
2016-Feb-09 04:00N 17°44' E 148°59'0 0.0 27.2
2016-Feb-09 03:00N 17°44' E 148°59'1 0.3 27.2
2016-Feb-09 01:00N 17°44' E 148°58'0 0.0 27.0
2016-Feb-09 00:00N 17°44' E 148°58'0 0.3 26.9
2016-Feb-08 23:00N 17°44' E 148°59'0 0.0 26.9
2016-Feb-08 22:00N 17°44' E 148°59'1 0.4 26.9
2016-Feb-08 20:00N 17°45' E 148°59'1 0.7 26.8
2016-Feb-08 19:00N 17°45' E 148°60'1 0.8 26.9
2016-Feb-08 18:00N 17°45' E 149°00'1 0.2 26.8
2016-Feb-08 12:00N 17°46' E 149°00'0 0.2 26.9
2016-Feb-08 11:00N 17°46' E 149°00'0 0.3 26.9
2016-Feb-08 10:00N 17°46' E 149°00'0 0.0 26.9
2016-Feb-08 09:00N 17°46' E 149°00'3 0.9 26.9
2016-Feb-08 06:00N 17°45' E 149°03'1 0.9 27.0
2016-Feb-08 05:00N 17°45' E 149°04'1 0.4 27.0
2016-Feb-08 03:00N 17°45' E 149°05'0 0.0 26.9
2016-Feb-08 02:00N 17°45' E 149°05'2 0.8 26.9
2016-Feb-08 00:00N 17°44' E 149°06'0 0.2 26.9
2016-Feb-07 23:00N 17°44' E 149°06'0 0.2 26.9
2016-Feb-07 21:00N 17°44' E 149°06'0 0.1 26.9
2016-Feb-07 20:00N 17°44' E 149°06'1 0.7 26.8
2016-Feb-07 19:00N 17°43' E 149°07'0 0.3 26.9
2016-Feb-07 18:00N 17°43' E 149°07'0 0.1 26.9
2016-Feb-07 17:00N 17°43' E 149°07'2 1.9 26.9
2016-Feb-07 16:00N 17°42' E 149°08'1 1.3 26.9
2016-Feb-07 15:00N 17°43' E 149°07'1 0.4 26.9
2016-Feb-07 12:00N 17°42' E 149°08'1 0.5 26.9
2016-Feb-07 11:00N 17°42' E 149°09'1 0.6 27.0
2016-Feb-07 10:00N 17°41' E 149°09'2 0.8 27.0
2016-Feb-07 08:00N 17°41' E 149°11'0 0.1 27.0
2016-Feb-07 06:00N 17°41' E 149°11'0 0.3 27.1
2016-Feb-07 05:00N 17°41' E 149°11'1 0.3 27.1
2016-Feb-07 03:00N 17°41' E 149°12'0 0.0 27.1
2016-Feb-07 02:00N 17°41' E 149°12'2 0.9 27.0
2016-Feb-07 00:00N 17°41' E 149°14'0 0.1 26.9
2016-Feb-06 23:00N 17°41' E 149°14'1 0.4 26.9
2016-Feb-06 21:00N 17°42' E 149°14'0 0.1 26.9
2016-Feb-06 20:00N 17°42' E 149°14'0 0.0 26.9
2016-Feb-06 18:00N 17°42' E 149°14'0 0.1 26.9
2016-Feb-06 17:00N 17°42' E 149°14'0 0.3 26.9
2016-Feb-06 16:00N 17°42' E 149°14'0 0.0 26.9
2016-Feb-06 15:00N 17°42' E 149°14'2 0.7 26.9
2016-Feb-06 12:00N 17°41' E 149°16'1 0.6 26.9
2016-Feb-06 11:00N 17°41' E 149°17'3 0.8 26.9
2016-Feb-06 08:00N 17°40' E 149°19'0 0.4 26.9
2016-Feb-06 07:00N 17°40' E 149°19'1 0.4 26.9
2016-Feb-06 05:00N 17°40' E 149°19'2 0.9 27.0
2016-Feb-06 03:00N 17°39' E 149°21'4 1.4 26.9
2016-Feb-06 00:00N 17°36' E 149°24'3 3.2 26.9
2016-Feb-05 23:00N 17°33' E 149°26'2 0.4 26.9
2016-Feb-05 19:00N 17°32' E 149°27'0 0.0 26.9
2016-Feb-05 18:00N 17°32' E 149°27'4 0.7 26.9
2016-Feb-05 12:00N 17°28' E 149°29'3 0.5 27.0
2016-Feb-05 07:00N 17°26' E 149°29'5 0.7 27.0
2016-Feb-05 00:00N 17°21' E 149°29'2 2.1 27.0
2016-Feb-04 23:00N 17°18' E 149°29'1 0.4 27.0
2016-Feb-04 20:00N 17°18' E 149°30'1 0.8 27.0
2016-Feb-04 19:00N 17°17' E 149°31'4 1.3 27.0
2016-Feb-04 16:00N 17°14' E 149°33'0 0.1 27.0
2016-Feb-04 12:00N 17°14' E 149°33'1 1.3 27.0
2016-Feb-04 11:00N 17°14' E 149°35'0 0.0 27.0
2016-Feb-04 10:00N 17°14' E 149°35'1 0.4 27.0
2016-Feb-04 08:00N 17°14' E 149°35'0 0.5 27.1
2016-Feb-04 07:00N 17°13' E 149°35'0 0.0 27.1
2016-Feb-04 06:00N 17°13' E 149°35'2 0.8 27.2
2016-Feb-04 04:00N 17°13' E 149°37'3 0.3 27.2
2016-Feb-03 20:00N 17°11' E 149°39'3 0.4 27.0
2016-Feb-03 11:00N 17°08' E 149°39'2 0.8 27.0
2016-Feb-03 08:00N 17°07' E 149°42'   27.0

Dump ship's entire track history